Farmersville, Ohio
Current Conditions -  °F | °C
As of 11:55 PM on Saturday 25 Oct 2014 (Local Time) from KMWO Reporting Station
Clear Clear  
Wind Chill: 57°   Ceiling: Unl
Heat Index: 57°   Visibility: 10mi
Dew Point: 46°   Wind: 8mph
Humidity: 68%   Direction: 270°W
Pressure: 29.94"   Gusts: NA
Location:  39.68°N, 84.43°W
Report Text: KMWO 260355Z AUTO 27007KT 10SM CLR 14/08 A2994 RMK AO2 T01380079 402360056
Loading
Personal Weather Stations






























Interactive Weather Map
Tropical Storm Tracking
New forecast layout! Learn more

10-Day Weather Forecast

Advertisements
Track Severe Weather on mobile